Terminal Aerodrome Forecast
Issued by NWS Tuscon, AZ

Home | Current Version | Previous Version | Text Only | Print | Product List | Glossary On
Versions: 1 2 3 4 5 6 7 8 9 10 11 12 13 14 15 16
000
FTUS45 KTWC 251200 AAA
TAFTUS
TAF AMD
KTUS 251228Z 2512/2612 16008KT P6SM SCT200
      TEMPO 2512/2516 5SM HZ
     FM251700 VRB04KT P6SM SCT080 BKN200
     FM252100 29008KT P6SM SCT090 BKN150
     FM260500 16007KT P6SM SCT100 BKN200=

USA.gov is the U.S. government's official web portal to all federal, state and local government web resources and services.